createdAt,value
2022-12-12T00:00:41.015Z,-0.67
2022-12-12T00:03:07.689Z,-0.64
2022-12-12T00:05:34.439Z,-0.62
2022-12-12T00:08:01.217Z,-0.60
2022-12-12T00:10:27.845Z,-0.60
2022-12-12T00:12:54.394Z,-0.60
2022-12-12T00:15:21.390Z,-0.59
2022-12-12T00:17:47.951Z,-0.63
2022-12-12T00:20:14.540Z,-0.63
2022-12-12T00:22:41.510Z,-0.65
2022-12-12T00:25:08.555Z,-0.62
2022-12-12T00:27:35.217Z,-0.65
2022-12-12T00:30:01.987Z,-0.67
2022-12-12T00:32:28.741Z,-0.64
2022-12-12T00:34:55.333Z,-0.63
2022-12-12T00:37:22.025Z,-0.65
2022-12-12T00:39:48.584Z,-0.63
2022-12-12T00:42:15.166Z,-0.61
2022-12-12T00:44:41.739Z,-0.60
2022-12-12T00:47:08.536Z,-0.60
2022-12-12T00:49:35.459Z,-0.57
2022-12-12T00:52:02.269Z,-0.56
2022-12-12T00:54:29.361Z,-0.54
2022-12-12T00:56:55.934Z,-0.50
2022-12-12T00:59:22.920Z,-0.50
2022-12-12T01:01:49.599Z,-0.50
2022-12-12T01:04:16.748Z,-0.49
2022-12-12T01:06:43.319Z,-0.48
2022-12-12T01:09:10.155Z,-0.48
2022-12-12T01:11:36.819Z,-0.49
2022-12-12T01:14:04.001Z,-0.52
2022-12-12T01:16:31.298Z,-0.50
2022-12-12T01:18:58.326Z,-0.54
2022-12-12T01:21:26.930Z,-0.54
2022-12-12T01:23:55.241Z,-0.52
2022-12-12T01:26:25.554Z,-0.52
2022-12-12T01:28:54.666Z,-0.52
2022-12-12T01:31:23.440Z,-0.53
2022-12-12T01:33:52.406Z,-0.53
2022-12-12T01:36:22.952Z,-0.51
2022-12-12T01:38:53.504Z,-0.50
2022-12-12T01:41:22.531Z,-0.48
2022-12-12T01:43:51.831Z,-0.48
2022-12-12T01:46:42.787Z,-0.48
2022-12-12T01:51:48.180Z,-0.46
2022-12-12T01:54:20.110Z,-0.47
2022-12-12T01:56:48.038Z,-0.46
2022-12-12T01:59:17.700Z,-0.44
2022-12-12T02:01:45.499Z,-0.45
2022-12-12T02:04:13.228Z,-0.47
2022-12-12T02:06:40.888Z,-0.45
2022-12-12T02:09:12.444Z,-0.47
2022-12-12T02:11:45.778Z,-0.51
2022-12-12T02:14:16.596Z,-0.49
2022-12-12T02:22:05.032Z,-0.42
2022-12-12T02:38:22.011Z,-0.30
2022-12-12T02:43:44.994Z,0.01
2022-12-12T02:46:24.380Z,-0.22
2022-12-12T02:48:59.708Z,-0.29
2022-12-12T02:51:27.828Z,-0.31
2022-12-12T02:53:54.353Z,-0.33
2022-12-12T02:56:50.193Z,-0.32
2022-12-12T02:59:22.663Z,-0.31
2022-12-12T03:02:29.029Z,-0.31
2022-12-12T03:10:32.444Z,-0.24
2022-12-12T03:21:07.958Z,-0.23
2022-12-12T03:23:42.027Z,-0.23
2022-12-12T03:29:00.775Z,-0.26
2022-12-12T03:31:32.078Z,-0.24
2022-12-12T03:34:05.080Z,-0.27
2022-12-12T03:36:38.929Z,-0.27
2022-12-12T03:39:13.512Z,-0.27
2022-12-12T03:41:47.160Z,-0.28
2022-12-12T03:47:01.284Z,-0.24
2022-12-12T03:49:51.019Z,-0.27
2022-12-12T03:52:25.117Z,-0.27
2022-12-12T03:54:59.571Z,-0.27
2022-12-12T03:57:36.035Z,-0.28
2022-12-12T04:00:08.106Z,-0.28
2022-12-12T04:03:07.471Z,-0.30
2022-12-12T04:08:16.461Z,-0.29
2022-12-12T04:11:12.040Z,-0.29
2022-12-12T04:13:53.875Z,-0.28
2022-12-12T04:16:30.469Z,-0.26
2022-12-12T04:19:41.529Z,-0.23
2022-12-12T04:22:39.568Z,-0.22
2022-12-12T04:25:18.484Z,-0.19
2022-12-12T04:27:51.779Z,-0.17
2022-12-12T04:30:18.589Z,-0.14
2022-12-12T04:32:51.043Z,-0.11
2022-12-12T04:35:26.962Z,-0.10
2022-12-12T04:37:56.947Z,-0.10
2022-12-12T04:40:36.106Z,-0.11
2022-12-12T04:43:25.939Z,-0.15
2022-12-12T04:45:58.174Z,-0.14
2022-12-12T04:48:35.621Z,-0.18
2022-12-12T04:51:06.070Z,-0.21
2022-12-12T04:53:38.446Z,-0.22
2022-12-12T04:56:09.805Z,-0.23
2022-12-12T04:58:38.400Z,-0.24
2022-12-12T05:06:30.447Z,-0.17
2022-12-12T05:08:58.347Z,-0.22
2022-12-12T05:11:25.089Z,-0.24
2022-12-12T05:13:51.720Z,-0.23
2022-12-12T05:16:40.464Z,-0.25
2022-12-12T05:19:07.136Z,-0.26
2022-12-12T05:21:33.898Z,-0.30
2022-12-12T05:24:00.448Z,-0.31
2022-12-12T05:26:29.519Z,-0.36
2022-12-12T05:28:56.418Z,-0.36
2022-12-12T05:31:23.326Z,-0.39
2022-12-12T05:33:50.013Z,-0.42
2022-12-12T05:36:17.032Z,-0.41
2022-12-12T05:38:44.292Z,-0.40
2022-12-12T05:41:11.605Z,-0.40
2022-12-12T05:43:38.614Z,-0.38
2022-12-12T05:46:06.675Z,-0.40
2022-12-12T05:48:34.156Z,-0.41
2022-12-12T05:51:02.260Z,-0.42
2022-12-12T05:53:29.591Z,-0.44
2022-12-12T05:55:56.352Z,-0.44
2022-12-12T05:58:23.252Z,-0.43
2022-12-12T06:00:51.766Z,-0.43
2022-12-12T06:03:20.327Z,-0.43
2022-12-12T06:05:47.095Z,-0.46
2022-12-12T06:08:14.286Z,-0.46
2022-12-12T06:10:40.993Z,-0.47
2022-12-12T06:13:07.556Z,-0.46
2022-12-12T06:15:34.367Z,-0.45
2022-12-12T06:18:00.976Z,-0.45
2022-12-12T06:20:28.470Z,-0.44
2022-12-12T06:22:55.011Z,-0.40
2022-12-12T06:25:21.598Z,-0.39
2022-12-12T06:27:48.235Z,-0.38
2022-12-12T06:30:15.123Z,-0.37
2022-12-12T06:32:42.016Z,-0.36
2022-12-12T06:35:09.699Z,-0.35
2022-12-12T06:37:36.338Z,-0.34
2022-12-12T06:40:03.695Z,-0.35
2022-12-12T06:42:30.329Z,-0.38
2022-12-12T06:44:56.992Z,-0.40
2022-12-12T06:47:23.629Z,-0.42
2022-12-12T06:49:50.232Z,-0.43
2022-12-12T06:52:16.821Z,-0.44
2022-12-12T06:54:43.428Z,-0.44
2022-12-12T06:57:10.165Z,-0.46
2022-12-12T06:59:36.853Z,-0.50
2022-12-12T07:02:03.957Z,-0.50
2022-12-12T07:04:30.616Z,-0.55
2022-12-12T07:06:57.147Z,-0.57
2022-12-12T07:09:23.931Z,-0.56
2022-12-12T07:11:50.511Z,-0.55
2022-12-12T07:14:17.480Z,-0.55
2022-12-12T07:16:44.040Z,-0.54
2022-12-12T07:19:10.644Z,-0.54
2022-12-12T07:21:37.245Z,-0.55
2022-12-12T07:24:03.959Z,-0.56
2022-12-12T07:26:30.559Z,-0.57
2022-12-12T07:28:57.177Z,-0.60
2022-12-12T07:31:26.569Z,-0.60
2022-12-12T07:33:54.440Z,-0.62
2022-12-12T07:36:21.115Z,-0.63
2022-12-12T07:38:47.745Z,-0.62
2022-12-12T07:41:16.402Z,-0.62
2022-12-12T07:43:45.761Z,-0.62
2022-12-12T07:46:16.112Z,-0.63
2022-12-12T07:48:43.011Z,-0.65
2022-12-12T07:51:09.599Z,-0.69
2022-12-12T07:53:38.923Z,-0.70
2022-12-12T07:56:07.698Z,-0.69
2022-12-12T07:58:34.944Z,-0.69
2022-12-12T08:01:01.841Z,-0.69
2022-12-12T08:03:28.482Z,-0.68
2022-12-12T08:05:55.095Z,-0.67
2022-12-12T08:08:21.761Z,-0.67
2022-12-12T08:10:48.332Z,-0.68
2022-12-12T08:13:14.879Z,-0.66
2022-12-12T08:15:43.960Z,-0.66
2022-12-12T08:18:10.557Z,-0.64
2022-12-12T08:20:40.015Z,-0.63
2022-12-12T08:23:07.362Z,-0.61
2022-12-12T08:25:35.891Z,-0.60
2022-12-12T08:28:02.552Z,-0.57
2022-12-12T08:30:29.226Z,-0.55
2022-12-12T08:32:55.993Z,-0.54
2022-12-12T08:35:22.593Z,-0.54
2022-12-12T08:37:49.142Z,-0.50
2022-12-12T08:40:15.875Z,-0.48
2022-12-12T08:42:42.472Z,-0.45
2022-12-12T08:45:09.609Z,-0.44
2022-12-12T08:47:36.154Z,-0.44
2022-12-12T08:50:03.462Z,-0.42
2022-12-12T08:52:30.133Z,-0.40
2022-12-12T08:54:56.776Z,-0.41
2022-12-12T08:57:26.061Z,-0.40
2022-12-12T08:59:52.825Z,-0.38
2022-12-12T09:02:19.500Z,-0.35
2022-12-12T09:04:46.094Z,-0.32
2022-12-12T09:07:12.837Z,-0.31
2022-12-12T09:09:39.451Z,-0.28
2022-12-12T09:12:06.332Z,-0.26
2022-12-12T09:14:33.484Z,-0.23
2022-12-12T09:17:00.029Z,-0.21
2022-12-12T09:19:26.639Z,-0.20
2022-12-12T09:21:53.199Z,-0.20
2022-12-12T09:24:19.828Z,-0.16
2022-12-12T09:26:46.601Z,-0.12
2022-12-12T09:29:13.173Z,-0.10
2022-12-12T09:31:39.880Z,-0.08
2022-12-12T09:34:06.467Z,-0.06
2022-12-12T09:36:33.040Z,-0.02
2022-12-12T09:38:59.568Z,-0.01
2022-12-12T09:41:27.335Z,0.00
2022-12-12T09:46:57.803Z,0.03
2022-12-12T09:52:02.645Z,0.08
2022-12-12T09:54:29.719Z,0.09
2022-12-12T10:00:12.539Z,0.13
2022-12-12T10:08:51.781Z,0.33
2022-12-12T10:11:47.756Z,0.30
2022-12-12T10:14:17.520Z,0.31
2022-12-12T10:16:44.737Z,0.31
2022-12-12T10:19:25.699Z,0.32
2022-12-12T10:21:54.691Z,0.33
2022-12-12T10:24:30.776Z,0.35
2022-12-12T10:26:59.788Z,0.37
2022-12-12T10:29:27.480Z,0.38
2022-12-12T10:38:06.537Z,0.41
2022-12-12T10:43:33.851Z,0.43
2022-12-12T10:48:40.096Z,0.44
2022-12-12T10:51:12.040Z,0.42
2022-12-12T10:53:40.510Z,0.42
2022-12-12T10:56:11.840Z,0.42
2022-12-12T10:58:42.426Z,0.41
2022-12-12T11:04:02.223Z,0.32
2022-12-12T11:06:37.841Z,0.24
2022-12-12T11:09:17.843Z,0.24
2022-12-12T11:12:01.480Z,0.25
2022-12-12T11:14:36.595Z,0.22
2022-12-12T11:17:19.652Z,0.07
2022-12-12T11:19:46.489Z,-0.10
2022-12-12T11:22:14.469Z,-0.14
2022-12-12T11:24:45.337Z,-0.23
2022-12-12T11:27:32.748Z,-0.17
2022-12-12T11:30:05.002Z,-0.10
2022-12-12T11:35:45.573Z,-0.05
2022-12-12T11:38:21.004Z,-0.11
2022-12-12T11:40:58.634Z,-0.21
2022-12-12T11:43:29.508Z,-0.16
2022-12-12T11:51:39.655Z,-0.30
2022-12-12T11:54:19.242Z,-0.28
2022-12-12T11:56:57.823Z,-0.24
2022-12-12T12:19:03.131Z,-0.09
2022-12-12T12:22:04.052Z,-0.17
2022-12-12T12:27:42.148Z,0.05
2022-12-12T12:33:24.654Z,-0.10
2022-12-12T12:39:02.738Z,-0.13
2022-12-12T12:49:55.188Z,-0.11
2022-12-12T12:52:34.757Z,-0.17
2022-12-12T12:55:02.611Z,-0.12
2022-12-12T12:57:35.434Z,-0.09
2022-12-12T13:00:30.892Z,-0.05
2022-12-12T13:03:13.876Z,-0.04
2022-12-12T13:08:41.629Z,-0.11
2022-12-12T13:11:17.839Z,-0.05
2022-12-12T13:13:47.913Z,-0.02
2022-12-12T13:16:20.324Z,-0.03
2022-12-12T13:18:58.900Z,0.01
2022-12-12T13:24:32.453Z,0.04
2022-12-12T13:34:59.909Z,0.22
2022-12-12T13:37:28.100Z,0.22
2022-12-12T13:40:01.330Z,0.23
2022-12-12T13:43:09.981Z,0.25
2022-12-12T13:45:43.147Z,0.25
2022-12-12T13:57:13.758Z,0.31
2022-12-12T14:08:03.525Z,0.34
2022-12-12T14:16:07.003Z,0.15
2022-12-12T14:19:13.936Z,0.19
2022-12-12T14:21:44.701Z,0.19
2022-12-12T14:27:13.380Z,0.12
2022-12-12T14:29:45.639Z,0.13
2022-12-12T14:35:26.471Z,0.11
2022-12-12T14:40:34.098Z,0.01
2022-12-12T14:53:39.645Z,0.32
2022-12-12T14:58:57.341Z,0.06
2022-12-12T15:07:04.531Z,0.01
2022-12-12T15:09:36.164Z,0.02
2022-12-12T15:20:04.135Z,0.03
2022-12-12T15:22:33.827Z,-0.07
2022-12-12T15:25:03.514Z,-0.02
2022-12-12T15:27:39.958Z,-0.05
2022-12-12T15:30:29.196Z,-0.07
2022-12-12T15:32:57.443Z,-0.14
2022-12-12T15:35:24.280Z,-0.09
2022-12-12T15:38:11.988Z,-0.10
2022-12-12T15:40:39.752Z,-0.12
2022-12-12T15:43:14.516Z,-0.14
2022-12-12T15:45:46.413Z,-0.10
2022-12-12T15:48:15.975Z,-0.07
2022-12-12T15:53:24.899Z,-0.03
2022-12-12T16:06:38.959Z,0.11
2022-12-12T16:09:24.082Z,0.09
2022-12-12T16:14:41.692Z,0.12
2022-12-12T16:17:25.777Z,0.15
2022-12-12T16:20:16.182Z,0.14
2022-12-12T16:25:29.838Z,0.11
2022-12-12T16:28:24.779Z,0.11
2022-12-12T16:30:56.320Z,0.12
2022-12-12T16:33:30.208Z,0.13
2022-12-12T16:36:00.013Z,0.13
2022-12-12T16:38:30.428Z,0.09
2022-12-12T16:41:00.696Z,0.11
2022-12-12T16:43:27.930Z,0.10
2022-12-12T16:45:56.274Z,0.07
2022-12-12T16:48:39.184Z,0.05
2022-12-12T16:51:08.248Z,0.11
2022-12-12T16:53:36.453Z,0.08
2022-12-12T16:56:03.976Z,0.08
2022-12-12T16:58:30.555Z,0.10
2022-12-12T17:00:59.077Z,0.04
2022-12-12T17:03:26.293Z,-0.03
2022-12-12T17:05:53.248Z,-0.06
2022-12-12T17:08:20.003Z,-0.06
2022-12-12T17:10:48.717Z,-0.02
2022-12-12T17:13:18.603Z,-0.04
2022-12-12T17:15:45.425Z,-0.11
2022-12-12T17:18:12.138Z,-0.10
2022-12-12T17:20:38.817Z,-0.08
2022-12-12T17:25:52.898Z,-0.02
2022-12-12T17:28:21.217Z,0.01
2022-12-12T17:30:49.979Z,0.04
2022-12-12T17:33:18.384Z,0.06
2022-12-12T17:35:46.077Z,0.07
2022-12-12T17:38:16.114Z,0.09
2022-12-12T17:40:43.725Z,0.10
2022-12-12T17:43:10.529Z,0.11
2022-12-12T17:45:37.126Z,0.12
2022-12-12T17:48:05.091Z,0.15
2022-12-12T17:50:33.232Z,0.16
2022-12-12T17:53:01.488Z,0.17
2022-12-12T17:55:51.409Z,0.18
2022-12-12T17:58:14.569Z,0.21
2022-12-12T18:00:41.194Z,0.24
2022-12-12T18:03:08.050Z,0.29
2022-12-12T18:05:35.583Z,0.33
2022-12-12T18:08:02.158Z,0.36
2022-12-12T18:10:28.724Z,0.38
2022-12-12T18:12:55.296Z,0.40
2022-12-12T18:15:21.822Z,0.40
2022-12-12T18:17:48.407Z,0.42
2022-12-12T18:20:15.150Z,0.42
2022-12-12T18:22:41.973Z,0.44
2022-12-12T18:25:09.223Z,0.46
2022-12-12T18:27:38.083Z,0.48
2022-12-12T18:30:05.168Z,0.48
2022-12-12T18:32:32.115Z,0.46
2022-12-12T18:34:58.657Z,0.43
2022-12-12T18:37:25.207Z,0.43
2022-12-12T18:42:26.953Z,0.46
2022-12-12T18:44:53.558Z,0.46
2022-12-12T18:47:20.131Z,0.47
2022-12-12T18:49:46.668Z,0.49
2022-12-12T18:52:13.179Z,0.51
2022-12-12T18:54:40.190Z,0.53
2022-12-12T18:57:07.486Z,0.53
2022-12-12T18:59:34.760Z,0.52
2022-12-12T19:02:01.381Z,0.51
2022-12-12T19:04:28.061Z,0.51
2022-12-12T19:06:55.266Z,0.50
2022-12-12T19:09:22.454Z,0.50
2022-12-12T19:11:49.303Z,0.49
2022-12-12T19:14:16.721Z,0.50
2022-12-12T19:16:44.798Z,0.53
2022-12-12T19:19:12.209Z,0.56
2022-12-12T19:21:39.595Z,0.57
2022-12-12T19:24:09.320Z,0.56
2022-12-12T19:26:37.703Z,0.49
2022-12-12T19:29:07.970Z,0.51
2022-12-12T19:31:36.041Z,0.49
2022-12-12T19:34:04.638Z,0.47
2022-12-12T19:36:31.904Z,0.46
2022-12-12T19:39:00.018Z,0.48
2022-12-12T19:41:27.748Z,0.45
2022-12-12T19:43:57.246Z,0.45
2022-12-12T19:46:26.266Z,0.43
2022-12-12T19:48:56.170Z,0.45
2022-12-12T19:51:24.604Z,0.42
2022-12-12T19:53:56.173Z,0.42
2022-12-12T19:56:25.515Z,0.43
2022-12-12T19:58:52.812Z,0.43
2022-12-12T20:01:22.868Z,0.42
2022-12-12T20:03:51.895Z,0.41
2022-12-12T20:06:18.899Z,0.39
2022-12-12T20:08:46.347Z,0.41
2022-12-12T20:11:17.348Z,0.39
2022-12-12T20:13:48.840Z,0.40
2022-12-12T20:16:17.627Z,0.34
2022-12-12T20:18:44.645Z,0.36
2022-12-12T20:21:24.691Z,0.33
2022-12-12T20:23:57.966Z,0.33
2022-12-12T20:26:27.289Z,0.36
2022-12-12T20:28:55.320Z,0.32
2022-12-12T20:31:25.883Z,0.38
2022-12-12T20:33:55.389Z,0.43
2022-12-12T20:36:26.522Z,0.41
2022-12-12T20:38:55.919Z,0.41
2022-12-12T20:41:24.857Z,0.36
2022-12-12T20:43:54.046Z,0.38
2022-12-12T20:46:23.570Z,0.41
2022-12-12T20:48:50.733Z,0.38
2022-12-12T20:51:52.734Z,0.35
2022-12-12T20:54:07.230Z,0.34
2022-12-12T20:56:34.796Z,0.41
2022-12-12T20:59:03.633Z,0.43
2022-12-12T21:01:33.130Z,0.47
2022-12-12T21:04:01.581Z,0.45
2022-12-12T21:06:30.649Z,0.43
2022-12-12T21:09:00.951Z,0.45
2022-12-12T21:11:27.780Z,0.46
2022-12-12T21:13:54.459Z,0.46
2022-12-12T21:16:24.001Z,0.50
2022-12-12T21:18:52.622Z,0.51
2022-12-12T21:21:20.047Z,0.47
2022-12-12T21:23:47.729Z,0.49
2022-12-12T21:26:21.533Z,0.55
2022-12-12T21:28:50.959Z,0.55
2022-12-12T21:31:20.738Z,0.48
2022-12-12T21:33:48.157Z,0.51
2022-12-12T21:36:17.363Z,0.55
2022-12-12T21:38:44.170Z,0.58
2022-12-12T21:41:13.292Z,0.59
2022-12-12T21:43:40.402Z,0.61
2022-12-12T21:46:11.287Z,0.64
2022-12-12T21:48:38.267Z,0.64
2022-12-12T21:51:07.696Z,0.57
2022-12-12T21:53:35.403Z,0.60
2022-12-12T21:58:43.479Z,0.84
2022-12-12T22:01:13.382Z,0.66
2022-12-12T22:03:40.645Z,0.56
2022-12-12T22:06:12.876Z,0.55
2022-12-12T22:08:40.621Z,0.56
2022-12-12T22:11:08.725Z,0.60
2022-12-12T22:13:40.036Z,0.59
2022-12-12T22:16:12.763Z,0.62
2022-12-12T22:18:39.599Z,0.61
2022-12-12T22:21:08.999Z,0.62
2022-12-12T22:23:36.573Z,0.62
2022-12-12T22:29:04.582Z,0.50
2022-12-12T22:31:32.412Z,0.44
2022-12-12T22:34:02.896Z,0.42
2022-12-12T22:36:32.656Z,0.45
2022-12-12T22:39:00.421Z,0.44
2022-12-12T22:41:28.958Z,0.47
2022-12-12T22:43:57.989Z,0.42
2022-12-12T22:46:26.346Z,0.46
2022-12-12T22:48:55.074Z,0.46
2022-12-12T22:51:25.765Z,0.54
2022-12-12T22:53:52.468Z,0.50
2022-12-12T22:56:19.062Z,0.50
2022-12-12T22:58:45.681Z,0.47
2022-12-12T23:01:16.594Z,0.48
2022-12-12T23:03:43.744Z,0.49
2022-12-12T23:06:14.472Z,0.49
2022-12-12T23:08:41.535Z,0.46
2022-12-12T23:11:11.502Z,0.43
2022-12-12T23:13:39.224Z,0.46
2022-12-12T23:16:08.508Z,0.41
2022-12-12T23:18:37.960Z,0.40
2022-12-12T23:21:06.397Z,0.43
2022-12-12T23:23:34.399Z,0.42
2022-12-12T23:26:04.721Z,0.33
2022-12-12T23:28:31.353Z,0.31
2022-12-12T23:30:58.373Z,0.32
2022-12-12T23:33:24.953Z,0.31
2022-12-12T23:35:52.334Z,0.31
2022-12-12T23:38:19.644Z,0.35
2022-12-12T23:40:46.328Z,0.34
2022-12-12T23:43:12.902Z,0.32
2022-12-12T23:45:39.643Z,0.36
2022-12-12T23:48:07.883Z,0.36
2022-12-12T23:50:34.490Z,0.32
2022-12-12T23:53:03.949Z,0.33
2022-12-12T23:55:34.121Z,0.33
2022-12-12T23:58:00.778Z,0.26
